KCVO - Corvallis, OR
Updated: Sun, 24-Sep-2017 2:56am PDT
Clear
Clear
 Wind from calm
Wind: Calm
Temperature: 46°F , 8°C
Dew Point: 46°F , 8°C
Humidity: 100%
Barometer: 30.11 inHg , 1019.6 hPa
Clouds: Clear
Visibility: 10 miles , 16 km
2017/09/24 09:56 KCVO 240956Z AUTO 00000KT 10SM CLR 08/08 A3011 RMK AO2 SLP197 T00830078